createdAt,value
2023-03-11T00:01:28.682Z,93103.38
2023-03-11T00:03:57.798Z,93099.47
2023-03-11T00:06:26.984Z,93097.97
2023-03-11T00:08:55.910Z,93092.88
2023-03-11T00:11:25.328Z,93096.41
2023-03-11T00:13:54.452Z,93088.38
2023-03-11T00:16:24.969Z,93086.88
2023-03-11T00:18:54.383Z,93078.38
2023-03-11T00:21:23.453Z,93074.53
2023-03-11T00:23:52.515Z,93065.53
2023-03-11T00:26:21.726Z,93065.53
2023-03-11T00:28:50.880Z,93043.31
2023-03-11T00:31:20.507Z,93044.94
2023-03-11T00:33:50.971Z,93056.44
2023-03-11T00:36:25.196Z,93040.28
2023-03-11T00:38:54.702Z,93029.72
2023-03-11T00:41:23.750Z,93027.16
2023-03-11T00:43:53.043Z,93025.91
2023-03-11T00:46:22.228Z,93029.44
2023-03-11T00:48:54.040Z,93020.13
2023-03-11T00:51:23.139Z,93018.88
2023-03-11T00:53:52.300Z,93023.75
2023-03-11T00:56:21.479Z,93038.84
2023-03-11T00:58:50.663Z,93016.09
2023-03-11T01:01:21.660Z,93012.13
2023-03-11T01:03:52.579Z,93001.63
2023-03-11T01:06:22.472Z,93001.03
2023-03-11T01:08:51.586Z,92999.97
2023-03-11T01:11:20.585Z,92991.03
2023-03-11T01:13:49.650Z,92981.00
2023-03-11T01:16:18.649Z,92969.19
2023-03-11T01:18:47.744Z,92978.41
2023-03-11T01:21:20.988Z,93009.78
2023-03-11T01:23:49.631Z,93029.97
2023-03-11T01:26:18.548Z,93021.91
2023-03-11T01:28:47.548Z,93010.91
2023-03-11T01:31:16.566Z,93012.19
2023-03-11T01:33:45.848Z,93008.72
2023-03-11T01:36:15.031Z,93021.66
2023-03-11T01:38:45.583Z,93030.88
2023-03-11T01:41:15.014Z,93029.28
2023-03-11T01:43:54.908Z,93027.66
2023-03-11T01:46:28.798Z,93034.75
2023-03-11T01:49:00.199Z,93034.81
2023-03-11T01:51:35.466Z,93032.69
2023-03-11T01:54:08.681Z,93042.19
2023-03-11T01:56:39.104Z,93045.13
2023-03-11T01:59:09.864Z,93045.56
2023-03-11T02:01:49.708Z,93035.38
2023-03-11T02:04:19.161Z,93041.75
2023-03-11T02:06:51.403Z,93041.16
2023-03-11T02:09:24.391Z,93045.16
2023-03-11T02:11:53.671Z,93053.38
2023-03-11T02:14:23.389Z,93057.03
2023-03-11T02:16:55.280Z,93063.97
2023-03-11T02:19:31.775Z,93074.78
2023-03-11T02:22:02.282Z,93073.44
2023-03-11T02:24:40.609Z,93078.97
2023-03-11T02:27:16.476Z,93072.41
2023-03-11T02:29:50.281Z,93080.63
2023-03-11T02:32:20.616Z,93088.81
2023-03-11T02:34:49.695Z,93086.22
2023-03-11T02:37:20.103Z,93091.50
2023-03-11T02:39:56.825Z,93074.34
2023-03-11T02:42:29.921Z,93081.25
2023-03-11T02:45:02.849Z,93071.72
2023-03-11T02:47:33.995Z,93070.03
2023-03-11T02:50:02.918Z,93070.03
2023-03-11T02:52:35.128Z,93070.84
2023-03-11T02:55:04.420Z,93070.25
2023-03-11T02:57:34.915Z,93073.75
2023-03-11T03:00:11.424Z,93071.38
2023-03-11T03:02:41.459Z,93066.59
2023-03-11T03:05:11.864Z,93067.44
2023-03-11T03:07:41.204Z,93067.66
2023-03-11T03:10:11.769Z,93062.94
2023-03-11T03:12:43.038Z,93056.63
2023-03-11T03:15:13.743Z,93054.22
2023-03-11T03:17:43.285Z,93059.28
2023-03-11T03:20:14.306Z,93069.88
2023-03-11T03:22:48.408Z,93067.22
2023-03-11T03:25:19.879Z,93070.59
2023-03-11T03:27:51.015Z,93071.09
2023-03-11T03:30:21.268Z,93069.25
2023-03-11T03:32:50.455Z,93067.41
2023-03-11T03:35:21.778Z,93068.97
2023-03-11T03:37:59.186Z,93074.28
2023-03-11T03:40:28.435Z,93065.53
2023-03-11T03:43:01.011Z,93057.19
2023-03-11T03:45:32.425Z,93063.66
2023-03-11T03:48:01.834Z,93066.19
2023-03-11T03:50:34.957Z,93064.28
2023-03-11T03:53:04.098Z,93058.34
2023-03-11T03:55:33.627Z,93058.06
2023-03-11T03:58:04.935Z,93053.84
2023-03-11T04:00:36.204Z,93065.38
2023-03-11T04:03:05.822Z,93063.56
2023-03-11T04:05:45.754Z,93059.41
2023-03-11T04:08:16.419Z,93054.63
2023-03-11T04:10:46.090Z,93061.72
2023-03-11T04:13:16.525Z,93060.66
2023-03-11T04:15:46.987Z,93059.34
2023-03-11T04:18:16.064Z,93057.50
2023-03-11T04:20:45.039Z,93056.66
2023-03-11T04:23:15.287Z,93059.34
2023-03-11T04:25:44.567Z,93060.72
2023-03-11T04:28:13.869Z,93058.06
2023-03-11T04:30:44.490Z,93057.53
2023-03-11T04:33:13.822Z,93072.50
2023-03-11T04:35:46.206Z,93069.44
2023-03-11T04:38:15.813Z,93078.38
2023-03-11T04:40:44.848Z,93075.25
2023-03-11T04:43:14.084Z,93084.59
2023-03-11T04:45:51.722Z,93089.88
2023-03-11T04:48:21.207Z,93094.66
2023-03-11T04:50:50.759Z,93089.63
2023-03-11T04:53:19.785Z,93088.06
2023-03-11T04:55:49.096Z,93093.88
2023-03-11T04:58:18.432Z,93101.00
2023-03-11T05:00:50.430Z,93096.50
2023-03-11T05:03:19.754Z,93107.59
2023-03-11T05:05:49.248Z,93109.31
2023-03-11T05:08:20.653Z,93112.72
2023-03-11T05:10:49.690Z,93101.63
2023-03-11T05:13:18.772Z,93110.06
2023-03-11T05:15:48.056Z,93108.38
2023-03-11T05:18:19.370Z,93112.09
2023-03-11T05:20:50.760Z,93115.03
2023-03-11T05:23:23.068Z,93117.72
2023-03-11T05:25:52.154Z,93121.28
2023-03-11T05:28:21.404Z,93120.22
2023-03-11T05:30:54.233Z,93120.75
2023-03-11T05:33:25.550Z,93127.38
2023-03-11T05:35:56.008Z,93125.78
2023-03-11T05:38:25.120Z,93125.72
2023-03-11T05:40:54.305Z,93120.94
2023-03-11T05:43:23.471Z,93128.88
2023-03-11T05:45:56.588Z,93139.19
2023-03-11T05:48:27.242Z,93140.69
2023-03-11T05:50:56.574Z,93144.41
2023-03-11T05:53:26.565Z,93157.44
2023-03-11T05:55:59.595Z,93150.50
2023-03-11T05:58:33.697Z,93157.16
2023-03-11T06:01:02.541Z,93148.97
2023-03-11T06:03:33.150Z,93158.25
2023-03-11T06:06:02.197Z,93158.75
2023-03-11T06:08:31.299Z,93155.59
2023-03-11T06:11:03.500Z,93152.41
2023-03-11T06:13:32.705Z,93153.19
2023-03-11T06:16:01.770Z,93157.88
2023-03-11T06:18:32.502Z,93156.03
2023-03-11T06:21:03.610Z,93161.00
2023-03-11T06:23:34.420Z,93158.41
2023-03-11T06:26:06.598Z,93156.19
2023-03-11T06:28:40.873Z,93168.88
2023-03-11T06:31:11.052Z,93164.56
2023-03-11T06:33:42.037Z,93162.00
2023-03-11T06:36:13.910Z,93172.56
2023-03-11T06:38:43.388Z,93167.88
2023-03-11T06:41:12.614Z,93165.72
2023-03-11T06:43:41.859Z,93152.41
2023-03-11T06:46:12.633Z,93161.13
2023-03-11T06:48:45.978Z,93160.69
2023-03-11T06:51:17.195Z,93153.09
2023-03-11T06:53:49.639Z,93154.16
2023-03-11T06:56:20.679Z,93160.34
2023-03-11T06:58:55.653Z,93159.22
2023-03-11T07:01:28.379Z,93169.97
2023-03-11T07:04:00.773Z,93168.34
2023-03-11T07:06:30.836Z,93167.41
2023-03-11T07:09:22.744Z,93158.97
2023-03-11T07:11:55.725Z,93157.25
2023-03-11T07:14:33.260Z,93155.94
2023-03-11T07:17:02.582Z,93152.47
2023-03-11T07:19:40.633Z,93154.94
2023-03-11T07:22:09.688Z,93157.16
2023-03-11T07:24:38.623Z,93158.91
2023-03-11T07:27:07.680Z,93160.28
2023-03-11T07:29:36.815Z,93158.69
2023-03-11T07:32:06.591Z,93156.53
2023-03-11T07:34:35.835Z,93159.19
2023-03-11T07:37:06.593Z,93156.88
2023-03-11T07:39:35.648Z,93152.88
2023-03-11T07:42:06.188Z,93146.16
2023-03-11T07:44:38.667Z,93141.91
2023-03-11T07:47:08.149Z,93133.34
2023-03-11T07:49:39.274Z,93133.97
2023-03-11T07:52:10.063Z,93133.84
2023-03-11T07:54:39.096Z,93141.41
2023-03-11T07:57:09.569Z,93148.22
2023-03-11T07:59:38.514Z,93131.63
2023-03-11T08:02:07.628Z,93121.91
2023-03-11T08:04:36.743Z,93121.72
2023-03-11T08:07:05.725Z,93117.03
2023-03-11T08:09:38.074Z,93123.97
2023-03-11T08:12:07.712Z,93109.50
2023-03-11T08:14:36.985Z,93108.44
2023-03-11T08:17:06.279Z,93101.03
2023-03-11T08:19:35.506Z,93096.81
2023-03-11T08:22:05.059Z,93091.16
2023-03-11T08:24:34.244Z,93083.88
2023-03-11T08:27:04.889Z,93080.88
2023-03-11T08:29:34.106Z,93076.88
2023-03-11T08:32:04.932Z,93072.91
2023-03-11T08:34:35.352Z,93072.75
2023-03-11T08:37:04.804Z,93070.66
2023-03-11T08:39:33.869Z,93060.63
2023-03-11T08:42:04.570Z,93052.50
2023-03-11T08:44:33.764Z,93049.41
2023-03-11T08:47:03.292Z,93034.16
2023-03-11T08:49:32.563Z,93038.53
2023-03-11T08:52:02.875Z,93039.34
2023-03-11T08:54:35.578Z,93050.78
2023-03-11T08:57:06.239Z,93048.53
2023-03-11T08:59:35.886Z,93050.41
2023-03-11T09:02:05.023Z,93044.84
2023-03-11T09:04:34.079Z,93046.09
2023-03-11T09:07:03.049Z,93043.16
2023-03-11T09:09:32.173Z,93045.16
2023-03-11T09:12:01.246Z,93039.97
2023-03-11T09:14:31.786Z,93038.41
2023-03-11T09:17:00.696Z,93038.88
2023-03-11T09:19:29.835Z,93033.56
2023-03-11T09:22:01.668Z,93037.34
2023-03-11T09:24:31.577Z,93025.03
2023-03-11T09:27:00.661Z,93030.34
2023-03-11T09:29:31.082Z,93026.00
2023-03-11T09:32:00.861Z,93032.84
2023-03-11T09:34:29.946Z,93026.94
2023-03-11T09:36:59.111Z,93025.53
2023-03-11T09:39:28.249Z,93014.28
2023-03-11T09:41:59.520Z,93010.72
2023-03-11T09:44:38.785Z,93017.69
2023-03-11T09:47:31.845Z,93024.91
2023-03-11T09:50:15.376Z,93017.72
2023-03-11T09:52:51.346Z,93022.19
2023-03-11T09:55:34.121Z,93008.78
2023-03-11T09:58:08.748Z,93006.13
2023-03-11T10:00:39.941Z,93010.09
2023-03-11T10:03:20.186Z,93018.63
2023-03-11T10:05:49.785Z,93024.34
2023-03-11T10:08:26.427Z,93020.09
2023-03-11T10:11:08.712Z,93016.31
2023-03-11T10:13:46.793Z,93008.09
2023-03-11T10:16:25.160Z,93023.34
2023-03-11T10:19:01.483Z,93025.00
2023-03-11T10:21:43.439Z,93020.78
2023-03-11T10:24:25.158Z,93015.78
2023-03-11T10:26:59.599Z,93011.22
2023-03-11T10:29:32.410Z,93014.22
2023-03-11T10:32:12.152Z,93015.59
2023-03-11T10:34:45.326Z,93014.69
2023-03-11T10:37:16.447Z,93008.59
2023-03-11T10:39:48.304Z,93019.41
2023-03-11T10:42:22.711Z,93011.09
2023-03-11T10:44:52.618Z,93018.78
2023-03-11T10:47:24.925Z,93021.13
2023-03-11T10:49:54.130Z,93020.16
2023-03-11T10:52:23.162Z,93022.81
2023-03-11T10:55:03.218Z,93016.41
2023-03-11T10:57:36.107Z,93013.06
2023-03-11T11:00:17.458Z,93007.31
2023-03-11T11:02:58.311Z,93005.72
2023-03-11T11:05:32.923Z,93012.66
2023-03-11T11:08:08.189Z,92999.81
2023-03-11T11:10:50.066Z,92999.06
2023-03-11T11:13:21.297Z,92991.06
2023-03-11T11:15:59.092Z,92983.56
2023-03-11T11:18:32.538Z,92983.34
2023-03-11T11:21:05.971Z,92976.63
2023-03-11T11:23:42.264Z,92978.34
2023-03-11T11:26:19.273Z,92971.13
2023-03-11T11:28:48.104Z,92970.72
2023-03-11T11:31:24.546Z,92956.13
2023-03-11T11:33:56.164Z,92959.03
2023-03-11T11:36:31.275Z,92955.44
2023-03-11T11:39:03.350Z,92961.00
2023-03-11T11:41:35.008Z,92958.59
2023-03-11T11:44:07.470Z,92947.69
2023-03-11T11:46:42.112Z,92951.94
2023-03-11T11:49:21.018Z,92944.31
2023-03-11T11:51:53.679Z,92938.69
2023-03-11T11:54:29.427Z,92944.03
2023-03-11T11:57:00.285Z,92934.31
2023-03-11T11:59:30.912Z,92922.38
2023-03-11T12:02:20.800Z,92907.88
2023-03-11T12:04:56.368Z,92913.28
2023-03-11T12:07:40.024Z,92912.38
2023-03-11T12:10:23.638Z,92902.06
2023-03-11T12:13:13.971Z,92910.44
2023-03-11T12:15:48.583Z,92906.31
2023-03-11T12:18:24.076Z,92899.06
2023-03-11T12:20:57.142Z,92915.09
2023-03-11T12:23:39.269Z,92903.25
2023-03-11T12:26:17.322Z,92907.28
2023-03-11T12:28:52.950Z,92903.59
2023-03-11T12:31:24.679Z,92894.56
2023-03-11T12:33:59.095Z,92897.34
2023-03-11T12:36:34.281Z,92912.16
2023-03-11T12:39:06.885Z,92924.50
2023-03-11T12:41:40.124Z,92933.56
2023-03-11T12:44:25.894Z,92972.94
2023-03-11T12:47:04.549Z,92981.31
2023-03-11T12:49:35.341Z,93008.41
2023-03-11T12:52:20.447Z,93014.97
2023-03-11T12:54:50.710Z,93012.59
2023-03-11T12:57:37.050Z,93024.66
2023-03-11T13:00:30.793Z,93030.50
2023-03-11T13:03:33.884Z,93043.56
2023-03-11T13:06:22.694Z,93051.72
2023-03-11T13:08:54.995Z,93046.88
2023-03-11T13:11:46.362Z,93051.75
2023-03-11T13:14:33.091Z,93041.88
2023-03-11T13:17:27.114Z,93042.34
2023-03-11T13:19:57.812Z,93045.25
2023-03-11T13:23:16.441Z,93034.50
2023-03-11T13:26:11.475Z,93028.75
2023-03-11T13:28:54.343Z,93027.13
2023-03-11T13:31:40.624Z,93026.69
2023-03-11T13:34:17.070Z,93015.03
2023-03-11T13:37:01.834Z,93015.47
2023-03-11T13:39:55.193Z,93004.56
2023-03-11T13:42:31.598Z,93022.63
2023-03-11T13:45:01.542Z,93029.44
2023-03-11T13:47:33.842Z,93041.97
2023-03-11T13:50:07.043Z,93062.78
2023-03-11T13:52:37.079Z,93060.16
2023-03-11T13:55:08.915Z,93053.59
2023-03-11T13:57:39.641Z,93049.75
2023-03-11T14:00:17.998Z,93044.56
2023-03-11T14:02:51.373Z,93045.03
2023-03-11T14:05:24.979Z,93061.09
2023-03-11T14:07:54.461Z,93067.28
2023-03-11T14:10:29.881Z,93059.97
2023-03-11T14:13:17.562Z,93064.63
2023-03-11T14:15:53.656Z,93069.75
2023-03-11T14:18:35.034Z,93078.13
2023-03-11T14:21:05.438Z,93093.59
2023-03-11T14:23:37.880Z,93084.53
2023-03-11T14:26:09.941Z,93089.81
2023-03-11T14:28:45.116Z,93085.00
2023-03-11T14:31:44.256Z,93091.00
2023-03-11T14:34:18.220Z,93096.59
2023-03-11T14:36:51.327Z,93100.44
2023-03-11T14:39:35.749Z,93100.72
2023-03-11T14:42:09.171Z,93107.28
2023-03-11T14:44:45.377Z,93107.56
2023-03-11T14:47:20.952Z,93132.53
2023-03-11T14:49:55.055Z,93140.72
2023-03-11T14:52:38.873Z,93143.28
2023-03-11T14:55:14.445Z,93156.41
2023-03-11T14:57:50.507Z,93170.88
2023-03-11T15:00:28.692Z,93167.72
2023-03-11T15:03:04.094Z,93165.25
2023-03-11T15:05:43.317Z,93171.22
2023-03-11T15:08:12.878Z,93167.88
2023-03-11T15:10:42.009Z,93165.53
2023-03-11T15:13:16.829Z,93177.50
2023-03-11T15:16:00.956Z,93193.13
2023-03-11T15:18:33.660Z,93202.19
2023-03-11T15:21:08.456Z,93203.75
2023-03-11T15:23:44.247Z,93210.53
2023-03-11T15:26:23.734Z,93212.47
2023-03-11T15:29:01.593Z,93221.06
2023-03-11T15:31:37.945Z,93215.09
2023-03-11T15:34:25.817Z,93227.91
2023-03-11T15:37:20.824Z,93227.47
2023-03-11T15:39:53.543Z,93246.25
2023-03-11T15:42:27.039Z,93247.34
2023-03-11T15:45:13.103Z,93260.56
2023-03-11T15:47:46.077Z,93273.78
2023-03-11T15:50:50.615Z,93297.00
2023-03-11T15:53:26.538Z,93302.56
2023-03-11T15:56:07.868Z,93310.19
2023-03-11T15:58:41.622Z,93312.47
2023-03-11T16:01:13.801Z,93324.78
2023-03-11T16:03:47.126Z,93337.41
2023-03-11T16:06:21.511Z,93341.88
2023-03-11T16:08:53.123Z,93352.81
2023-03-11T16:11:25.394Z,93349.59
2023-03-11T16:13:58.048Z,93354.00
2023-03-11T16:17:25.395Z,93358.09
2023-03-11T16:19:59.633Z,93364.94
2023-03-11T16:22:35.570Z,93366.25
2023-03-11T16:25:09.303Z,93382.00
2023-03-11T16:27:41.196Z,93397.44
2023-03-11T16:30:16.712Z,93412.75
2023-03-11T16:32:48.763Z,93422.78
2023-03-11T16:35:23.347Z,93420.72
2023-03-11T16:37:56.103Z,93428.38
2023-03-11T16:40:32.424Z,93429.22
2023-03-11T16:43:08.192Z,93434.22
2023-03-11T16:45:41.985Z,93446.91
2023-03-11T16:48:13.913Z,93443.94
2023-03-11T16:50:47.965Z,93457.00
2023-03-11T16:53:19.784Z,93455.41
2023-03-11T16:55:52.583Z,93461.63
2023-03-11T16:58:26.080Z,93471.25
2023-03-11T17:01:27.848Z,93494.72
2023-03-11T17:04:10.275Z,93497.75
2023-03-11T17:06:46.409Z,93515.19
2023-03-11T17:09:19.927Z,93519.75
2023-03-11T17:11:54.498Z,93520.84
2023-03-11T17:14:26.999Z,93538.16
2023-03-11T17:16:59.542Z,93527.50
2023-03-11T17:19:34.901Z,93535.06
2023-03-11T17:22:11.952Z,93562.28
2023-03-11T17:24:44.598Z,93561.25
2023-03-11T17:27:19.070Z,93570.47
2023-03-11T17:29:54.940Z,93568.28
2023-03-11T17:32:29.154Z,93567.72
2023-03-11T17:35:01.072Z,93569.38
2023-03-11T17:37:37.350Z,93573.13
2023-03-11T17:40:10.518Z,93583.06
2023-03-11T17:42:44.225Z,93585.69
2023-03-11T17:45:40.550Z,93598.34
2023-03-11T17:48:11.719Z,93609.31
2023-03-11T17:50:44.326Z,93610.22
2023-03-11T17:53:18.718Z,93607.63
2023-03-11T17:55:50.439Z,93616.53
2023-03-11T17:58:26.909Z,93617.69
2023-03-11T18:00:59.805Z,93602.22
2023-03-11T18:03:31.314Z,93612.88
2023-03-11T18:06:02.293Z,93619.81
2023-03-11T18:08:34.015Z,93626.00
2023-03-11T18:11:05.383Z,93624.50
2023-03-11T18:13:35.697Z,93634.66
2023-03-11T18:16:07.482Z,93646.63
2023-03-11T18:18:37.915Z,93635.34
2023-03-11T18:21:09.063Z,93643.28
2023-03-11T18:23:40.303Z,93632.59
2023-03-11T18:26:12.012Z,93631.97
2023-03-11T18:28:41.909Z,93637.84
2023-03-11T18:31:12.417Z,93651.69
2023-03-11T18:33:42.491Z,93657.03
2023-03-11T18:36:16.238Z,93668.13
2023-03-11T18:38:47.862Z,93652.59
2023-03-11T18:41:17.113Z,93660.38
2023-03-11T18:43:46.162Z,93668.72
2023-03-11T18:46:17.004Z,93676.34
2023-03-11T18:48:46.699Z,93680.91
2023-03-11T18:51:15.663Z,93704.63
2023-03-11T18:53:44.702Z,93707.00
2023-03-11T18:56:17.325Z,93702.78
2023-03-11T18:58:47.024Z,93707.25
2023-03-11T19:01:18.347Z,93701.66
2023-03-11T19:03:51.950Z,93704.28
2023-03-11T19:06:21.840Z,93704.63
2023-03-11T19:08:51.502Z,93698.56
2023-03-11T19:11:23.537Z,93691.13
2023-03-11T19:13:53.310Z,93697.97
2023-03-11T19:16:24.403Z,93701.16
2023-03-11T19:18:55.401Z,93706.19
2023-03-11T19:21:26.155Z,93712.47
2023-03-11T19:23:55.541Z,93726.69
2023-03-11T19:26:43.116Z,93733.25
2023-03-11T19:29:14.811Z,93740.75
2023-03-11T19:31:46.076Z,93749.09
2023-03-11T19:34:15.351Z,93749.47
2023-03-11T19:36:44.473Z,93753.56
2023-03-11T19:39:13.724Z,93753.69
2023-03-11T19:41:44.535Z,93768.28
2023-03-11T19:44:13.882Z,93765.34
2023-03-11T19:46:43.139Z,93777.28
2023-03-11T19:49:12.273Z,93776.94
2023-03-11T19:51:50.093Z,93775.13
2023-03-11T19:54:19.845Z,93785.59
2023-03-11T19:56:51.738Z,93782.19
2023-03-11T19:59:20.960Z,93784.16
2023-03-11T20:01:50.085Z,93782.44
2023-03-11T20:04:22.979Z,93799.19
2023-03-11T20:06:52.914Z,93807.31
2023-03-11T20:09:22.441Z,93807.97
2023-03-11T20:11:52.891Z,93817.69
2023-03-11T20:14:24.949Z,93834.78
2023-03-11T20:16:54.085Z,93837.84
2023-03-11T20:19:24.908Z,93842.88
2023-03-11T20:21:53.936Z,93843.00
2023-03-11T20:24:23.390Z,93836.69
2023-03-11T20:26:53.819Z,93836.38
2023-03-11T20:29:22.894Z,93839.44
2023-03-11T20:31:52.639Z,93832.38
2023-03-11T20:34:21.773Z,93847.06
2023-03-11T20:36:51.292Z,93847.06
2023-03-11T20:39:21.007Z,93857.75
2023-03-11T20:41:50.065Z,93861.53
2023-03-11T20:44:20.758Z,93857.31
2023-03-11T20:46:50.420Z,93869.41
2023-03-11T20:49:19.812Z,93868.66
2023-03-11T20:51:49.504Z,93868.75
2023-03-11T20:54:18.658Z,93866.78
2023-03-11T20:56:49.395Z,93868.50
2023-03-11T20:59:20.012Z,93868.13
2023-03-11T21:01:49.497Z,93881.56
2023-03-11T21:04:19.022Z,93884.34
2023-03-11T21:06:49.933Z,93888.03
2023-03-11T21:09:19.282Z,93897.72
2023-03-11T21:11:48.660Z,93904.31
2023-03-11T21:14:20.210Z,93909.00
2023-03-11T21:16:49.857Z,93897.38
2023-03-11T21:19:19.046Z,93915.34
2023-03-11T21:21:48.441Z,93904.91
2023-03-11T21:24:17.624Z,93914.81
2023-03-11T21:26:46.800Z,93914.00
2023-03-11T21:29:16.034Z,93909.25
2023-03-11T21:31:46.764Z,93927.13
2023-03-11T21:34:16.007Z,93930.09
2023-03-11T21:36:45.115Z,93926.56
2023-03-11T21:39:15.513Z,93931.50
2023-03-11T21:41:44.590Z,93935.47
2023-03-11T21:44:14.068Z,93947.97
2023-03-11T21:46:43.200Z,93957.81
2023-03-11T21:49:13.897Z,93966.25
2023-03-11T21:51:43.261Z,93963.63
2023-03-11T21:54:12.944Z,93960.00
2023-03-11T21:56:42.903Z,93950.75
2023-03-11T21:59:12.208Z,93943.88
2023-03-11T22:01:44.525Z,93936.06
2023-03-11T22:04:15.568Z,93945.16
2023-03-11T22:06:44.847Z,93933.97
2023-03-11T22:09:14.279Z,93931.44
2023-03-11T22:11:43.537Z,93941.59
2023-03-11T22:14:12.762Z,93935.09
2023-03-11T22:16:42.324Z,93944.84
2023-03-11T22:19:11.603Z,93945.50
2023-03-11T22:21:42.877Z,93953.13
2023-03-11T22:24:12.471Z,93960.69
2023-03-11T22:26:42.047Z,93968.31
2023-03-11T22:29:13.557Z,93982.38
2023-03-11T22:31:43.219Z,93996.31
2023-03-11T22:34:12.879Z,93997.09
2023-03-11T22:36:43.565Z,93998.59
2023-03-11T22:39:12.693Z,93989.78
2023-03-11T22:41:41.847Z,93992.31
2023-03-11T22:44:11.080Z,94000.72
2023-03-11T22:46:40.569Z,93991.66
2023-03-11T22:49:09.586Z,93992.94
2023-03-11T22:51:38.733Z,93993.75
2023-03-11T22:54:09.394Z,93996.38
2023-03-11T22:56:38.572Z,94000.59
2023-03-11T22:59:07.571Z,94007.66
2023-03-11T23:01:36.704Z,94001.38
2023-03-11T23:04:06.206Z,94010.84
2023-03-11T23:06:35.477Z,94007.66
2023-03-11T23:09:05.682Z,94008.47
2023-03-11T23:11:36.315Z,94009.06
2023-03-11T23:14:05.417Z,94015.69
2023-03-11T23:16:34.594Z,94001.72
2023-03-11T23:19:07.446Z,94001.09
2023-03-11T23:21:37.069Z,93994.47
2023-03-11T23:24:09.217Z,94002.47
2023-03-11T23:26:40.055Z,93998.25
2023-03-11T23:29:09.418Z,93996.91
2023-03-11T23:31:38.373Z,94004.97
2023-03-11T23:34:08.410Z,93995.31
2023-03-11T23:36:37.604Z,93991.03
2023-03-11T23:39:06.962Z,93986.41
2023-03-11T23:41:36.801Z,93988.41
2023-03-11T23:44:07.712Z,93997.88
2023-03-11T23:46:36.767Z,94004.69
2023-03-11T23:49:05.854Z,94012.53
2023-03-11T23:51:34.795Z,94007.28
2023-03-11T23:54:04.120Z,94012.75
2023-03-11T23:56:33.235Z,94018.63
2023-03-11T23:59:02.299Z,94022.81
